• Join FlightAware (Why Join?)
  • Login
  • US Flag 
04:32AM EDT


 

Airport Tracker/Info


-or-


 

Live Flight TrackerFlight Track Log ✈ N53442 ✈ 05-Jul-2013 ✈ KDEN - KSEA

Flight Track Log - Related Links

Times and Time Zones

All times are in EDT time to prevent confusion due to time zone crossing. See the N53442 flight status page for this flight to view local times or setup timezone preferences in your user account.

Time Position Orientation Groundspeed Altitude Reporting Facility
EDT Latitude Longitude Course Direction KTS MPH feet Rate Location/Type
01:32PM 39.8570 -104.6800 216° Southwest 28 32  Level FlightAware
01:36PM 39.8520 -104.6910 269° West 17 20 780 Level FlightAware
01:36PM 39.8520 -104.6980 270° West 34 39 1,800 Level FlightAware
01:38PM 39.8650 -104.6960 North 145 167 2,460 Level FlightAware
01:39PM 39.8818 -104.6960 360° North 198 228 5,400 12,420 Climbing FlightAware ADS-B
01:39PM 39.8891 -104.6960 360° North 196 226 5,800 2,640 Climbing FlightAware ADS-B
01:39PM 39.8984 -104.6950 North 198 228 6,200 2,280 Climbing FlightAware ADS-B
01:39PM 39.9061 -104.6950 360° North 204 235 6,500 1,620 Climbing FlightAware ADS-B
01:39PM 39.9093 -104.6950 360° North 209 241 6,500 660 Level FlightAware ADS-B
01:39PM 39.9148 -104.6960 352° North 216 249 6,600 1,200 Climbing FlightAware ADS-B
01:39PM 39.9186 -104.6960 360° North 220 253 6,700 1,620 Climbing FlightAware ADS-B
01:39PM 39.9263 -104.6980 349° North 224 258 6,900 1,020 Climbing FlightAware ADS-B
01:40PM 39.9437 -104.7030 348° North 248 285 7,100 1,140 Climbing FlightAware ADS-B
01:40PM 39.9540 -104.7060 347° North 251 289 7,400 2,220 Climbing FlightAware ADS-B
01:40PM 39.9735 -104.7120 347° North 253 291 8,100 2,460 Climbing FlightAware ADS-B
01:40PM 39.9873 -104.7160 347° North 253 291 8,600 1,860 Climbing FlightAware ADS-B
01:40PM 39.9985 -104.7200 345° North 260 299 8,800 1,200 Climbing FlightAware ADS-B
01:41PM 40.0163 -104.7290 339° North 275 316 9,100 1,200 Climbing FlightAware ADS-B
01:41PM 40.0350 -104.7370 342° North 293 337 9,400 1,680 Climbing FlightAware ADS-B
01:41PM 40.0522 -104.7450 340° North 293 337 9,900 2,700 Climbing FlightAware ADS-B
01:42PM 40.0909 -104.7630 340° North 288 331 11,400 2,640 Climbing FlightAware ADS-B
01:42PM 40.1290 -104.7800 341° North 292 336 12,600 1,800 Climbing FlightAware ADS-B
01:43PM 40.1738 -104.8000 341° North 312 359 13,300 1,320 Climbing FlightAware ADS-B
01:43PM 40.2181 -104.8200 341° North 346 398 14,000 1,860 Climbing FlightAware ADS-B
01:44PM 40.2940 -104.8540 341° North 355 409 15,800 1,980 Climbing FlightAware ADS-B
01:44PM 40.3426 -104.8760 341° North 366 421 16,700 2,160 Climbing FlightAware ADS-B
01:45PM 40.3881 -104.8970 341° North 361 415 18,000 2,220 Climbing FlightAware ADS-B
01:45PM 40.4361 -104.9190 341° North 369 425 18,900 1,740 Climbing FlightAware ADS-B
01:46PM 40.4881 -104.9430 341° North 379 436 19,800 1,800 Climbing FlightAware ADS-B
01:47PM 40.5384 -104.9660 341° North 381 438 20,800 1,980 Climbing FlightAware ADS-B
01:47PM 40.5894 -104.9890 341° North 382 440 21,800 1,800 Climbing FlightAware ADS-B
01:47PM 40.6066 -104.9960 343° North 386 444 22,000 1,320 Climbing FlightAware ADS-B
01:47PM 40.6267 -104.9990 354° North 392 451 22,300 1,800 Climbing FlightAware ADS-B
01:48PM 40.6409 -104.9990 360° North 392 451 22,600 1,080 Climbing FlightAware ADS-B
01:48PM 40.6961 -104.9960 North 397 457 23,000 540 Climbing FlightAware ADS-B
01:48PM 40.7168 -104.9940 North 399 459 23,000  Level FlightAware ADS-B
01:49PM 40.7728 -104.9850 North 412 474 23,000 240 Level FlightAware ADS-B
01:49PM 40.8332 -104.9740 North 425 489 23,300 840 Climbing FlightAware ADS-B
01:50PM 40.8949 -104.9640 North 431 496 23,900 1,200 Climbing FlightAware ADS-B
01:50PM 40.9084 -104.9620 North 430 495 24,100 1,080 Climbing FlightAware ADS-B
01:50PM 40.9174 -104.9620 360° North 429 494 24,100 720 Level FlightAware ADS-B
01:50PM 40.9243 -104.9630 354° North 427 491 24,200 1,080 Climbing FlightAware ADS-B
01:50PM 40.9372 -104.9680 344° North 425 489 24,300 1,500 Climbing FlightAware ADS-B
01:50PM 40.9472 -104.9740 336° Northwest 424 488 24,500 1,500 Climbing FlightAware ADS-B
01:50PM 40.9530 -104.9780 332° Northwest 423 487 24,500 1,200 Level FlightAware ADS-B
01:50PM 40.9634 -104.9890 321° Northwest 422 486 24,700 1,800 Climbing FlightAware ADS-B
01:50PM 40.9674 -104.9950 311° West 421 484 24,800 1,500 Climbing FlightAware ADS-B
01:50PM 40.9729 -105.0040 309° West 420 483 24,900 1,200 Climbing FlightAware ADS-B
01:51PM 40.9782 -105.0150 303° West 421 484 25,000 1,260 Climbing FlightAware ADS-B
01:51PM 40.9918 -105.0480 299° West 422 486 25,300 960 Climbing FlightAware ADS-B
01:51PM 41.0289 -105.1260 302° West 425 489 25,800 1,020 Climbing FlightAware ADS-B
01:52PM 41.0741 -105.2130 305° West 436 502 26,600 1,080 Climbing FlightAware ADS-B
01:53PM 41.1050 -105.2890 298° West 443 510 27,100 960 Climbing FlightAware
01:53PM 41.1450 -105.3820 300° West 448 516 27,800 1,080 Climbing FlightAware
01:54PM 41.1740 -105.4520 299° West 448 516 28,400 1,080 Climbing FlightAware
01:54PM 41.2150 -105.5480 300° West 448 516 29,100 1,140 Climbing FlightAware
01:55PM 41.2600 -105.6540 299° West 449 517 30,000 1,080 Climbing FlightAware
01:56PM 41.3000 -105.7480 300° West 454 522 30,600 1,320 Climbing FlightAware
01:57PM 41.3470 -105.8610 299° West 435 501 31,900 960 Climbing FlightAware
01:57PM 41.3860 -105.9540 299° West 424 488 32,000 60 Climbing FlightAware
01:58PM 41.4220 -106.0410 299° West 424 488 32,000  Level FlightAware
01:59PM 41.4670 -106.1500 299° West 424 488 32,000  Level FlightAware
01:59PM 41.5040 -106.2400 299° West 424 488 32,000  Level FlightAware
02:00PM 41.5340 -106.3140 298° West 424 488 32,000  Level FlightAware
02:01PM 41.5660 -106.3950 298° West 424 488 32,000  Level FlightAware
02:01PM 41.6020 -106.4860 298° West 424 488 32,000  Level FlightAware
02:02PM 41.6490 -106.6040 298° West 424 488 32,000  Level FlightAware
02:03PM 41.6770 -106.6750 298° West 424 488 32,000  Level FlightAware
02:04PM 41.7150 -106.7690 298° West 424 488 32,000  Level FlightAware
02:04PM 41.7430 -106.8420 297° West 424 488 32,000  Level FlightAware
02:05PM 41.7720 -106.9150 298° West 424 488 32,000  Level FlightAware
02:06PM 41.8080 -107.0060 298° West 424 488 32,000 2,340 Level FlightAware
02:07PM 41.9120 -107.2470 300° West 417 480 36,000 2,640 Climbing FlightAware
02:07PM 41.9380 -107.3130 298° West 417 480 36,000  Level FlightAware
02:08PM 41.9740 -107.4050 298° West 417 480 36,000  Level FlightAware
02:09PM 42.0020 -107.4750 298° West 417 480 36,000  Level FlightAware
02:09PM 42.0320 -107.5510 298° West 417 480 36,000  Level FlightAware
02:10PM 42.0770 -107.6660 298° West 417 480 36,000  Level FlightAware
02:11PM 42.1040 -107.7340 298° West 417 480 36,000  Level FlightAware
02:12PM 42.1320 -107.8050 298° West 417 480 36,000  Level FlightAware
02:12PM 42.1680 -107.8970 298° West 417 480 36,000  Level FlightAware
02:13PM 42.1960 -107.9670 298° West 417 480 36,000  Level FlightAware
02:14PM 42.2310 -108.0570 298° West 417 480 36,000  Level FlightAware
02:14PM 42.2590 -108.1270 298° West 417 480 36,000  Level FlightAware
02:15PM 42.2960 -108.2210 298° West 417 480 36,000  Level FlightAware
02:16PM 42.3260 -108.2980 298° West 417 480 36,000  Level FlightAware
02:16PM 42.4292 -108.5758 298° West 421 484 36,000  Level Salt Lake Center
02:17PM 42.4781 -108.7078 297° West 415 478 36,000  Level Salt Lake Center
02:18PM 42.5372 -108.8633 297° West 416 479 36,000  Level Salt Lake Center
02:19PM 42.5878 -108.9981 297° West 419 482 36,000  Level Salt Lake Center
02:20PM 42.6450 -109.1536 297° West 416 479 36,000  Level Salt Lake Center
02:22PM 42.6944 -109.2853 297° West 413 475 36,000  Level Salt Lake Center
02:23PM 42.7500 -109.4375 296° West 405 466 36,000  Level Salt Lake Center
02:24PM 42.7986 -109.5678 297° West 406 467 36,000  Level Salt Lake Center
02:25PM 42.8475 -109.6992 297° West 407 468 36,000  Level Salt Lake Center
02:26PM 42.9033 -109.8539 296° West 407 468 36,000  Level Salt Lake Center
02:27PM 42.9569 -110.0014 296° West 403 464 36,000  Level Salt Lake Center
02:28PM 43.0039 -110.1347 296° West 404 465 36,000  Level Salt Lake Center
02:29PM 43.0606 -110.2892 297° West 406 467 36,000  Level Salt Lake Center
02:30PM 43.1081 -110.4261 295° West 414 476 36,000  Level Salt Lake Center
02:31PM 43.1561 -110.5597 296° West 410 472 36,000  Level Salt Lake Center
02:32PM 43.2114 -110.7156 296° West 409 471 36,000  Level Salt Lake Center
02:33PM 43.2608 -110.8528 296° West 416 479 36,000  Level Salt Lake Center
02:34PM 43.3153 -111.0147 295° West 420 483 36,000  Level Salt Lake Center
02:35PM 43.3647 -111.1542 296° West 424 488 36,000  Level Salt Lake Center
02:36PM 43.4217 -111.3181 296° West 425 489 36,000  Level Salt Lake Center
02:37PM 43.4697 -111.4578 295° West 423 487 36,000  Level Salt Lake Center
02:38PM 43.5172 -111.5972 295° West 420 483 36,000  Level Salt Lake Center
02:43PM 43.7867 -112.3960 295° West 413 475 36,000  Level FlightAware ADS-B
02:44PM 43.8105 -112.4680 295° West 413 475 36,000  Level FlightAware ADS-B
02:44PM 43.8355 -112.5440 295° West 412 474 36,000  Level FlightAware ADS-B
02:45PM 43.8875 -112.7020 295° West 412 474 36,000  Level FlightAware ADS-B
02:47PM 43.9466 -112.8830 294° West 412 474 36,000  Level FlightAware ADS-B
02:48PM 44.0040 -113.0600 294° West 412 474 36,000  Level FlightAware ADS-B
02:48PM 44.0175 -113.1031 294° West 413 475 36,000  Level Salt Lake Center
02:48PM 44.0276 -113.1330 294° West 413 475 36,000  Level FlightAware ADS-B
02:49PM 44.0625 -113.2433 294° West 414 476 36,000  Level Salt Lake Center
02:49PM 44.0701 -113.2660 294° West 412 474 36,000  Level FlightAware ADS-B
02:54PM 44.2528 -113.8547 294° West  Level FlightAware Approximate
02:55PM 44.3290 -114.0740 294° West 417 480 36,000  Level FlightAware
02:56PM 44.3660 -114.1660 299° West 416 479 36,000  Level FlightAware
02:56PM 44.4000 -114.2520 299° West 415 478 36,000  Level FlightAware
02:57PM 44.4340 -114.3400 298° West 415 478 36,000  Level FlightAware
02:58PM 44.4780 -114.4530 299° West 413 475 36,000  Level FlightAware
02:58PM 44.5130 -114.5420 299° West 413 475 36,000  Level FlightAware
02:59PM 44.5530 -114.6460 298° West 413 475 36,000  Level FlightAware
02:59PM 44.5770 -114.7080 299° West 412 474 36,000  Level FlightAware
03:01PM 44.6440 -114.8810 299° West 416 479 36,000  Level FlightAware
03:01PM 44.6780 -114.9710 298° West 416 479 36,000  Level FlightAware
03:02PM 44.7160 -115.0720 298° West 416 479 36,000  Level FlightAware
03:03PM 44.7520 -115.1670 298° West 416 479 36,000  Level FlightAware
03:03PM 44.7890 -115.2630 299° West 419 482 36,000  Level FlightAware
03:04PM 44.8290 -115.3680 298° West 417 480 36,000  Level FlightAware
03:05PM 44.8690 -115.4740 298° West 416 479 36,000  Level FlightAware
03:05PM 44.9040 -115.5700 297° West 416 479 36,000  Level FlightAware
03:06PM 44.9400 -115.6660 298° West 418 481 36,000  Level FlightAware
03:07PM 44.9770 -115.7660 298° West 416 479 36,000  Level FlightAware
03:07PM 45.0110 -115.8580 298° West 415 478 36,000  Level FlightAware
03:08PM 45.0490 -115.9590 298° West 415 478 36,000  Level FlightAware
03:09PM 45.0820 -116.0490 297° West 417 480 36,000  Level FlightAware
03:09PM 45.1210 -116.1550 298° West 418 481 36,000  Level FlightAware
03:10PM 45.1460 -116.2240 297° West 422 486 36,000  Level FlightAware
03:11PM 45.1790 -116.3130 298° West 422 486 36,000  Level FlightAware
03:11PM 45.2220 -116.4320 297° West 419 482 36,000  Level FlightAware
03:12PM 45.2560 -116.5270 297° West 419 482 36,000  Level FlightAware
03:13PM 45.2880 -116.6170 297° West 419 482 36,000  Level FlightAware
03:13PM 45.3260 -116.7230 297° West 419 482 36,000  Level FlightAware
03:14PM 45.3600 -116.8160 298° West 417 480 36,000  Level FlightAware
03:15PM 45.3880 -116.8960 297° West 415 478 36,000  Level FlightAware
03:16PM 45.4710 -117.1300 297° West 416 479 36,000  Level FlightAware
03:17PM 45.5050 -117.2260 297° West 415 478 36,000  Level FlightAware
03:18PM 45.5430 -117.3350 296° West 415 478 36,000  Level FlightAware
03:18PM 45.5810 -117.4420 297° West 414 476 36,000  Level FlightAware
03:19PM 45.6140 -117.5370 296° West 411 473 36,000  Level FlightAware
03:20PM 45.6490 -117.6380 296° West 410 472 36,000  Level FlightAware
03:20PM 45.6830 -117.7380 296° West 407 468 36,000  Level FlightAware
03:21PM 45.7190 -117.8420 296° West 407 468 36,000  Level FlightAware
03:22PM 45.7540 -117.9440 296° West 407 468 36,000  Level FlightAware
03:22PM 45.7830 -118.0290 296° West 408 470 36,000  Level FlightAware
03:23PM 45.8240 -118.1500 296° West 411 473 36,000  Level FlightAware
03:24PM 45.8590 -118.2530 296° West 411 473 36,000  Level FlightAware
03:25PM 45.8940 -118.3560 296° West 411 473 36,000  Level FlightAware
03:25PM 45.9280 -118.4570 296° West 413 475 36,000  Level FlightAware
03:26PM 45.9600 -118.5540 295° West 413 475 36,000  Level FlightAware
03:27PM 46.0000 -118.6730 296° West 413 475 36,000  Level FlightAware
03:27PM 46.0310 -118.7670 295° West 413 475 36,000  Level FlightAware
03:28PM 46.0670 -118.8750 296° West 415 478 36,000  Level FlightAware
03:29PM 46.1040 -118.9860 296° West 417 480 36,000  Level FlightAware
03:29PM 46.1330 -119.0760 295° West 419 482 36,000  Level FlightAware
03:30PM 46.1570 -119.1470 296° West 420 483 36,000  Level FlightAware
03:31PM 46.2080 -119.3040 295° West 419 482 36,000  Level FlightAware
03:32PM 46.2440 -119.4160 295° West 418 481 36,000  Level FlightAware
03:32PM 46.2700 -119.4960 295° West 419 482 36,000  Level FlightAware
03:33PM 46.3040 -119.6030 295° West 420 483 36,000  Level FlightAware
03:33PM 46.3292 -119.6810 295° West 420 483 36,000  Level FlightAware ADS-B
03:34PM 46.3581 -119.7710 295° West 421 484 36,000  Level FlightAware ADS-B
03:34PM 46.3825 -119.8470 295° West 420 483 36,000  Level FlightAware ADS-B
03:35PM 46.4073 -119.9260 295° West 417 480 36,000  Level FlightAware ADS-B
03:36PM 46.4335 -120.0090 295° West 416 479 36,000  Level FlightAware ADS-B
03:36PM 46.4730 -120.1350 295° West 413 475 36,000  Level FlightAware
03:37PM 46.5140 -120.2650 295° West 412 474 36,000  Level FlightAware
03:37PM 46.5224 -120.2910 295° West 412 474 36,000  Level FlightAware ADS-B
03:38PM 46.5473 -120.3710 294° West 412 474 36,000  Level FlightAware ADS-B
03:38PM 46.5673 -120.4330 295° West 413 475 36,000 -180 Level FlightAware ADS-B
03:39PM 46.5863 -120.4780 302° West 417 480 35,900 -720 Descending FlightAware ADS-B
03:39PM 46.6211 -120.5510 305° West 420 483 35,400 -1,380 Descending FlightAware ADS-B
03:40PM 46.6544 -120.6210 305° West 415 478 34,500 -2,340 Descending FlightAware ADS-B
03:40PM 46.6803 -120.6750 305° West 417 480 33,300 -3,060 Descending FlightAware ADS-B
03:41PM 46.7134 -120.7450 305° West 417 480 31,800 -2,580 Descending FlightAware ADS-B
03:41PM 46.7497 -120.8210 305° West 412 474 30,600 -2,160 Descending FlightAware ADS-B
03:42PM 46.7819 -120.8890 305° West 404 465 29,500 -2,220 Descending FlightAware ADS-B
03:42PM 46.8135 -120.9570 304° West 395 455 28,400 -2,220 Descending FlightAware ADS-B
03:43PM 46.8451 -121.0230 305° West 388 447 27,300 -2,100 Descending FlightAware ADS-B
03:43PM 46.8753 -121.0870 305° West 378 435 26,300 -2,100 Descending FlightAware ADS-B
03:44PM 46.9045 -121.1500 304° West 371 427 25,200 -2,100 Descending FlightAware ADS-B
03:44PM 46.9335 -121.2120 304° West 365 420 24,200 -1,980 Descending FlightAware ADS-B
03:45PM 46.9624 -121.2750 304° West 357 411 23,200 -1,860 Descending FlightAware ADS-B
03:45PM 46.9785 -121.3100 304° West 352 405 22,600 -1,800 Descending FlightAware ADS-B
03:45PM 46.9869 -121.3280 304° West 351 404 22,300 -1,800 Descending FlightAware ADS-B
03:46PM 47.0131 -121.3840 304° West 345 397 21,400 -1,800 Descending FlightAware ADS-B
03:46PM 47.0397 -121.4410 304° West 339 390 20,500 -1,800 Descending FlightAware ADS-B
03:47PM 47.0710 -121.5090 304° West 332 382 19,600 -1,620 Descending FlightAware ADS-B
03:47PM 47.0967 -121.5650 304° West 328 377 18,900 -1,620 Descending FlightAware ADS-B
03:48PM 47.1225 -121.6210 304° West 324 373 18,000 -1,800 Descending FlightAware ADS-B
03:48PM 47.1480 -121.6760 304° West 324 373 17,100 -1,920 Descending FlightAware ADS-B
03:49PM 47.1730 -121.7310 304° West 322 371 16,100 -1,920 Descending FlightAware ADS-B
03:49PM 47.1979 -121.7850 304° West 320 368 15,200 -1,800 Descending FlightAware ADS-B
03:50PM 47.2222 -121.8380 304° West 316 364 14,300 -1,920 Descending FlightAware ADS-B
03:50PM 47.2466 -121.8920 304° West 315 362 13,300 -1,800 Descending FlightAware ADS-B
03:51PM 47.2712 -121.9460 304° West 310 357 12,500 -1,680 Descending FlightAware ADS-B
03:51PM 47.2871 -121.9800 305° West 310 357 11,900 -1,920 Descending FlightAware ADS-B
03:52PM 47.3115 -122.0350 303° West 311 358 10,900 -1,680 Descending FlightAware ADS-B
03:52PM 47.3352 -122.0870 304° West 302 348 10,200 -900 Descending FlightAware ADS-B
03:53PM 47.3574 -122.1360 304° West 277 319 10,000 -420 Descending FlightAware ADS-B
03:53PM 47.3667 -122.1570 303° West 270 311 9,900 -360 Descending FlightAware ADS-B
03:53PM 47.3696 -122.1620 311° West 265 305 9,900  Level FlightAware ADS-B
03:53PM 47.3729 -122.1680 309° West 260 299 9,900  Level FlightAware ADS-B
03:53PM 47.3765 -122.1720 323° Northwest 255 293 9,900  Level FlightAware ADS-B
03:53PM 47.3797 -122.1750 328° Northwest 253 291 9,900  Level FlightAware ADS-B
03:53PM 47.3831 -122.1780 329° Northwest 248 285 9,900  Level FlightAware ADS-B
03:53PM 47.3863 -122.1800 337° Northwest 246 283 9,900  Level FlightAware ADS-B
03:53PM 47.3933 -122.1830 344° North 240 276 9,900  Level FlightAware ADS-B
03:53PM 47.3971 -122.1830 360° North 237 273 9,900  Level FlightAware ADS-B
03:53PM 47.4003 -122.1830 360° North 235 270 9,900 -660 Level FlightAware ADS-B
03:54PM 47.4165 -122.1830 360° North 229 264 9,700 -900 Descending FlightAware ADS-B
03:54PM 47.4215 -122.1830 360° North 230 265 9,600 -1,200 Descending FlightAware ADS-B
03:54PM 47.4378 -122.1830 360° North 232 267 9,300 -1,380 Descending FlightAware ADS-B
03:54PM 47.4541 -122.1830 360° North 233 268 8,900 -1,380 Descending FlightAware ADS-B
03:54PM 47.4575 -122.1830 360° North 233 268 8,900 -780 Level FlightAware ADS-B
03:54PM 47.4712 -122.1840 357° North 231 266 8,700 -1,080 Descending FlightAware ADS-B
03:55PM 47.4875 -122.1840 360° North 230 265 8,400 -1,200 Descending FlightAware ADS-B
03:55PM 47.5034 -122.1850 358° North 229 264 8,100 -1,200 Descending FlightAware ADS-B
03:55PM 47.5199 -122.1860 358° North 230 265 7,800 -1,380 Descending FlightAware ADS-B
03:55PM 47.5326 -122.1860 360° North 229 264 7,500 -1,020 Descending FlightAware ADS-B
03:56PM 47.5446 -122.1870 357° North 227 261 7,400 -900 Descending FlightAware ADS-B
03:56PM 47.5606 -122.1870 360° North 227 261 7,100 -1,200 Descending FlightAware ADS-B
03:56PM 47.5767 -122.1880 358° North 224 258 6,800 -960 Descending FlightAware ADS-B
03:56PM 47.5857 -122.1880 360° North 222 255 6,700 -720 Descending FlightAware ADS-B
03:57PM 47.5966 -122.1890 356° North 220 253 6,500 -660 Descending FlightAware ADS-B
03:57PM 47.6087 -122.1890 360° North 217 250 6,400 -780 Descending FlightAware ADS-B
03:57PM 47.6230 -122.1900 357° North 213 245 6,200 -1,320 Descending FlightAware ADS-B
03:57PM 47.6431 -122.1910 358° North 212 244 5,800 -1,440 Descending FlightAware ADS-B
03:58PM 47.6577 -122.1910 360° North 211 243 5,500 -960 Descending FlightAware ADS-B
03:58PM 47.6675 -122.1910 360° North 210 242 5,400 -1,080 Descending FlightAware ADS-B
03:58PM 47.6802 -122.1910 360° North 212 244 5,100 -1,080 Descending FlightAware ADS-B
03:58PM 47.6958 -122.1920 358° North 215 247 4,900 -480 Descending FlightAware ADS-B
03:58PM 47.7054 -122.1920 360° North 217 250 4,900  Level FlightAware ADS-B
03:58PM 47.7090 -122.1930 349° North 216 249 4,900  Level FlightAware ADS-B
03:58PM 47.7125 -122.1940 349° North 217 250 4,900  Level FlightAware ADS-B
03:59PM 47.7166 -122.1970 334° Northwest 218 251 4,900  Level FlightAware ADS-B
03:59PM 47.7198 -122.2000 328° Northwest 219 252 4,900  Level FlightAware ADS-B
03:59PM 47.7222 -122.2030 320° Northwest 219 252 4,900  Level FlightAware ADS-B
03:59PM 47.7244 -122.2060 317° Northwest 219 252 4,900  Level FlightAware ADS-B
03:59PM 47.7267 -122.2110 304° West 220 253 4,900  Level FlightAware ADS-B
03:59PM 47.7282 -122.2150 299° West 219 252 4,900  Level FlightAware ADS-B
03:59PM 47.7296 -122.2200 293° West 219 252 4,900  Level FlightAware ADS-B
03:59PM 47.7310 -122.2260 289° West 219 252 4,900  Level FlightAware ADS-B
03:59PM 47.7330 -122.2350 288° West 217 250 4,900  Level FlightAware ADS-B
03:59PM 47.7371 -122.2570 285° West 217 250 4,900  Level FlightAware ADS-B
04:00PM 47.7410 -122.2790 285° West 219 252 4,900  Level FlightAware ADS-B
04:00PM 47.7448 -122.3010 284° West 205 236 4,900  Level FlightAware ADS-B
04:00PM 47.7469 -122.3130 285° West 194 223 4,900  Level FlightAware ADS-B
04:00PM 47.7483 -122.3220 283° West 192 221 4,900  Level FlightAware ADS-B
04:00PM 47.7487 -122.3260 278° West 192 221 4,900  Level FlightAware ADS-B
04:00PM 47.7488 -122.3300 272° West 193 222 4,900  Level FlightAware ADS-B
04:00PM 47.7485 -122.3340 264° West 195 224 4,900  Level FlightAware ADS-B
04:00PM 47.7476 -122.3390 255° West 196 226 4,900  Level FlightAware ADS-B
04:00PM 47.7462 -122.3430 243° Southwest 198 228 4,900  Level FlightAware ADS-B
04:00PM 47.7444 -122.3470 236° Southwest 199 229 4,900  Level FlightAware ADS-B
04:00PM 47.7415 -122.3520 229° Southwest 199 229 4,900  Level FlightAware ADS-B
04:01PM 47.7393 -122.3550 223° Southwest 200 230 4,900  Level FlightAware ADS-B
04:01PM 47.7299 -122.3600 200° South 205 236 4,900  Level FlightAware ADS-B
04:01PM 47.7264 -122.3610 191° South 206 237 4,900  Level FlightAware ADS-B
04:01PM 47.7222 -122.3610 180° South 207 238 4,900  Level FlightAware ADS-B
04:01PM 47.7193 -122.3600 167° South 209 241 4,900  Level FlightAware ADS-B
04:01PM 47.7165 -122.3590 166° South 205 236 4,900 -900 Level FlightAware ADS-B
04:01PM 47.7134 -122.3570 157° South 204 235 4,800 -1,740 Descending FlightAware ADS-B
04:01PM 47.7103 -122.3540 147° Southeast 205 236 4,700 -1,200 Descending FlightAware ADS-B
04:01PM 47.7009 -122.3460 150° Southeast 207 238 4,500 -1,140 Descending FlightAware ADS-B
04:02PM 47.6887 -122.3340 146° Southeast 207 238 4,200 -840 Descending FlightAware ADS-B
04:02PM 47.6781 -122.3240 148° Southeast 195 224 4,100 -660 Descending FlightAware ADS-B
04:02PM 47.6663 -122.3130 148° Southeast 199 229 3,900 -600 Descending FlightAware ADS-B
04:02PM 47.6623 -122.3110 161° South 200 230 3,900  Level FlightAware ADS-B
04:02PM 47.6588 -122.3090 159° South 197 227 3,900  Level FlightAware ADS-B
04:02PM 47.6553 -122.3090 180° South 192 221 3,900 420 Level FlightAware ADS-B
04:02PM 47.6468 -122.3070 171° South 185 213 4,000  Climbing FlightAware ADS-B
04:02PM 47.6427 -122.3070 180° South 181 208 3,900 -1,320 Descending FlightAware ADS-B
04:03PM 47.6345 -122.3060 175° South 183 211 3,700 -1,080 Descending FlightAware ADS-B
04:03PM 47.6283 -122.3060 180° South 189 217 3,600 -900 Descending FlightAware ADS-B
04:03PM 47.6168 -122.3060 180° South 192 221 3,400 -1,080 Descending FlightAware ADS-B
04:03PM 47.6034 -122.3060 180° South 191 220 3,100 -1,140 Descending FlightAware ADS-B
04:03PM 47.5923 -122.3070 183° South 190 219 2,900 -1,080 Descending FlightAware ADS-B
04:04PM 47.5826 -122.3070 180° South 189 217 2,700 -960 Descending FlightAware ADS-B
04:04PM 47.5757 -122.3070 180° South 187 215 2,600 -840 Descending FlightAware ADS-B
04:04PM 47.5696 -122.3070 180° South 186 214 2,500 -1,140 Descending FlightAware ADS-B
04:04PM 47.5573 -122.3070 180° South 184 212 2,200 -960 Descending FlightAware ADS-B
04:04PM 47.5477 -122.3070 180° South 179 206 2,100 -960 Descending FlightAware ADS-B
04:05PM 47.5351 -122.3070 180° South 177 204 1,800 -1,020 Descending FlightAware ADS-B
04:05PM 47.5279 -122.3070 180° South 172 198 1,700 -780 Descending FlightAware ADS-B
04:05PM 47.5225 -122.3070 180° South 165 190 1,600 -900 Descending FlightAware ADS-B
04:05PM 47.5134 -122.3070 180° South 157 181 1,400 -1,080 Descending FlightAware ADS-B
04:05PM 47.5059 -122.3070 180° South 153 176 1,200 -1,020 Descending FlightAware ADS-B
04:05PM 47.5006 -122.3070 180° South 152 175 1,100 -720 Descending FlightAware ADS-B
04:05PM 47.4944 -122.3070 180° South 150 173 1,000 -960 Descending FlightAware ADS-B
04:06PM 47.4827 -122.3080 183° South 151 174 700 -900 Descending FlightAware ADS-B
04:06PM 47.4630 -122.3080 180° South 152 175 300 -420 Descending FlightAware
04:07PM 47.4460 -122.3080 180° South 152 175 300  Level FlightAware